Time;durP1;ratioP1;P1;durP2;ratioP2;P2;SDS_P1;SDS_P2;PMS_P1;PMS_P2;Temp;Humidity;BMP_temperature;BMP_pressure;BME280_temperature;BME280_humidity;BME280_pressure;Samples;Min_cycle;Max_cycle;Signal;HPM_P1;HPM_P2
2024/01/23 00:02:02;;;;;;;23.48;3.55;;;6.60;99.90;;;;;;5046718;28;20057;-69
2024/01/23 00:04:28;;;;;;;21.83;3.50;;;6.60;99.90;;;;;;5062259;28;20098;-70
2024/01/23 00:06:54;;;;;;;24.55;3.17;;;6.90;99.90;;;;;;5062946;28;20596;-69
2024/01/23 00:09:23;;;;;;;21.52;3.42;;;6.50;99.90;;;;;;5060699;28;20059;-69
2024/01/23 00:11:49;;;;;;;26.20;3.72;;;6.50;99.90;;;;;;5059937;28;20091;-69
2024/01/23 00:14:14;;;;;;;20.17;2.92;;;6.50;99.90;;;;;;5062431;28;20497;-69
2024/01/23 00:16:40;;;;;;;28.85;4.28;;;6.50;99.90;;;;;;5062963;28;20469;-70
2024/01/23 00:19:06;;;;;;;25.27;4.45;;;6.60;99.90;;;;;;5062000;28;20111;-69
2024/01/23 00:21:32;;;;;;;26.15;3.47;;;6.50;99.90;;;;;;5046042;28;20535;-70
2024/01/23 00:23:57;;;;;;;25.05;3.95;;;6.40;99.90;;;;;;5062898;28;20044;-70
2024/01/23 00:26:23;;;;;;;29.02;4.57;;;6.40;99.90;;;;;;5046286;28;20036;-69
2024/01/23 00:28:49;;;;;;;20.25;3.55;;;6.40;99.90;;;;;;5062260;28;20110;-70
2024/01/23 00:31:14;;;;;;;21.55;3.40;;;6.50;99.90;;;;;;5061739;28;20037;-70
2024/01/23 00:33:40;;;;;;;26.02;4.05;;;6.40;99.90;;;;;;5062299;28;20141;-69
2024/01/23 00:36:06;;;;;;;21.23;3.70;;;6.40;99.90;;;;;;5062048;28;20051;-69
2024/01/23 00:38:32;;;;;;;24.13;3.45;;;6.40;99.90;;;;;;5045443;28;20127;-69
2024/01/23 00:40:57;;;;;;;20.35;4.38;;;6.40;99.90;;;;;;5061159;28;20059;-70
2024/01/23 00:43:23;;;;;;;22.00;3.22;;;6.40;99.90;;;;;;5045778;28;20043;-70
2024/01/23 00:45:52;;;;;;;24.17;3.75;;;6.40;99.90;;;;;;5045346;28;21670;-67
2024/01/23 00:48:18;;;;;;;24.27;3.83;;;6.40;99.90;;;;;;5062502;28;20056;-67
2024/01/23 00:50:44;;;;;;;21.45;3.55;;;6.70;99.90;;;;;;5061432;28;20051;-67
2024/01/23 00:53:10;;;;;;;23.77;3.72;;;6.40;99.90;;;;;;5045576;28;20827;-66
2024/01/23 00:55:35;;;;;;;23.55;3.50;;;6.40;99.90;;;;;;5061945;28;20060;-67
2024/01/23 00:58:01;;;;;;;24.40;3.67;;;6.40;99.90;;;;;;5061726;28;20045;-66
2024/01/23 01:00:27;;;;;;;24.38;4.00;;;6.40;99.90;;;;;;5075199;28;20464;-66
2024/01/23 01:02:53;;;;;;;25.85;3.60;;;6.40;99.90;;;;;;5061800;28;20078;-67
2024/01/23 01:05:18;;;;;;;21.73;3.10;;;6.40;99.90;;;;;;5044833;28;20070;-67
2024/01/23 01:07:44;;;;;;;20.25;3.17;;;6.40;99.90;;;;;;5061699;28;20048;-67
2024/01/23 01:10:10;;;;;;;18.92;3.25;;;6.50;99.90;;;;;;5063376;28;20422;-67
2024/01/23 01:12:36;;;;;;;28.05;3.90;;;6.40;99.90;;;;;;5044821;28;20048;-67
2024/01/23 01:15:02;;;;;;;25.45;3.55;;;6.90;99.90;;;;;;5045320;28;20044;-66
2024/01/23 01:17:28;;;;;;;21.88;3.35;;;6.40;99.90;;;;;;5044698;28;20040;-66
2024/01/23 01:19:55;;;;;;;19.55;2.88;;;6.30;99.90;;;;;;5061101;28;20090;-66
2024/01/23 01:22:21;;;;;;;20.13;3.50;;;6.30;99.90;;;;;;5061640;28;20257;-66
2024/01/23 01:24:47;;;;;;;20.40;3.20;;;6.30;99.90;;;;;;5061627;28;20036;-67
2024/01/23 01:27:13;;;;;;;27.35;3.78;;;6.30;99.90;;;;;;5061743;28;20059;-66
2024/01/23 01:29:38;;;;;;;26.25;3.70;;;6.40;99.90;;;;;;5060723;28;20049;-67
2024/01/23 01:32:04;;;;;;;22.15;4.05;;;6.20;99.90;;;;;;5060835;28;20129;-66
2024/01/23 01:34:31;;;;;;;30.15;3.70;;;6.20;99.90;;;;;;5061326;28;20087;-66
2024/01/23 01:36:57;;;;;;;21.65;3.78;;;6.20;99.90;;;;;;5044658;28;20140;-66
2024/01/23 01:39:23;;;;;;;26.17;3.65;;;6.20;99.90;;;;;;5043819;28;20145;-66
2024/01/23 01:41:56;;;;;;;22.30;3.67;;;6.20;99.90;;;;;;5060845;28;20041;-66
2024/01/23 01:44:21;;;;;;;23.90;3.83;;;6.20;99.90;;;;;;5043861;28;20072;-66
2024/01/23 01:46:48;;;;;;;20.65;3.25;;;6.10;99.90;;;;;;5060654;28;20068;-66
2024/01/23 01:49:16;;;;;;;27.60;3.78;;;6.10;99.90;;;;;;5044032;28;20047;-66
2024/01/23 01:51:43;;;;;;;28.13;3.08;;;6.10;99.90;;;;;;5058734;28;20131;-67
2024/01/23 01:54:09;;;;;;;24.48;4.00;;;6.10;99.90;;;;;;5061430;28;20126;-66
2024/01/23 01:56:35;;;;;;;20.90;3.25;;;6.10;99.90;;;;;;5061034;28;20048;-66
2024/01/23 01:59:01;;;;;;;24.90;3.95;;;6.10;99.90;;;;;;5045015;28;20041;-66
2024/01/23 02:01:27;;;;;;;27.90;4.80;;;6.10;99.90;;;;;;5064557;28;20055;-67
2024/01/23 02:03:53;;;;;;;24.63;3.85;;;6.10;99.90;;;;;;5064557;28;20626;-66
2024/01/23 02:06:20;;;;;;;26.90;3.35;;;6.00;99.90;;;;;;5064976;28;20122;-66
2024/01/23 02:08:48;;;;;;;29.98;3.65;;;6.00;99.90;;;;;;5048204;28;20037;-66
2024/01/23 02:11:14;;;;;;;26.13;3.38;;;6.00;99.90;;;;;;5047557;28;20044;-67
2024/01/23 02:13:41;;;;;;;26.42;3.88;;;6.00;99.90;;;;;;5060453;28;20341;-67
2024/01/23 02:16:08;;;;;;;23.80;4.30;;;6.00;99.90;;;;;;5048152;28;20040;-67
2024/01/23 02:18:34;;;;;;;23.25;4.18;;;6.10;99.90;;;;;;5049501;28;20037;-67
2024/01/23 02:20:59;;;;;;;25.77;4.47;;;6.00;99.90;;;;;;5065294;28;20055;-67
2024/01/23 02:23:29;;;;;;;19.00;3.30;;;6.00;99.90;;;;;;5048510;28;20090;-66
2024/01/23 02:25:55;;;;;;;29.75;4.20;;;6.00;99.90;;;;;;5065001;28;20056;-67
2024/01/23 02:28:21;;;;;;;29.83;4.75;;;6.00;99.90;;;;;;5064038;28;20128;-68
2024/01/23 02:30:47;;;;;;;24.90;4.07;;;5.90;99.90;;;;;;5063276;28;20040;-67
2024/01/23 02:33:14;;;;;;;25.90;4.18;;;5.90;99.90;;;;;;5064149;28;20071;-67
2024/01/23 02:35:40;;;;;;;24.65;3.88;;;5.90;99.90;;;;;;5063033;28;20777;-66
2024/01/23 02:38:08;;;;;;;25.33;3.75;;;5.90;99.90;;;;;;5064394;28;20041;-66
2024/01/23 02:40:35;;;;;;;28.48;3.88;;;6.00;99.90;;;;;;5063260;28;20040;-66
2024/01/23 02:43:01;;;;;;;31.10;4.45;;;5.90;99.90;;;;;;5047403;28;20133;-67
2024/01/23 02:45:27;;;;;;;23.17;4.30;;;6.00;99.90;;;;;;5063330;28;20607;-67
2024/01/23 02:47:53;;;;;;;23.25;3.63;;;6.00;99.90;;;;;;5063980;28;20048;-67
2024/01/23 02:50:18;;;;;;;31.58;3.60;;;6.00;99.90;;;;;;5045973;28;20620;-66
2024/01/23 02:52:44;;;;;;;28.13;3.63;;;6.00;99.90;;;;;;5047832;28;20071;-67
2024/01/23 02:55:10;;;;;;;26.85;3.90;;;6.10;99.90;;;;;;5064513;28;20871;-67
2024/01/23 02:57:36;;;;;;;24.55;3.55;;;6.10;99.90;;;;;;5064360;28;20075;-67
2024/01/23 03:00:02;;;;;;;25.10;4.47;;;6.10;99.90;;;;;;5062959;28;20618;-67
2024/01/23 03:02:28;;;;;;;29.55;5.47;;;6.10;99.90;;;;;;5064856;28;20052;-67
2024/01/23 03:04:54;;;;;;;24.00;4.38;;;6.10;99.90;;;;;;5061250;28;20044;-66
2024/01/23 03:07:23;;;;;;;18.33;3.80;;;6.10;99.90;;;;;;5064566;28;20036;-67
2024/01/23 03:09:49;;;;;;;27.55;3.90;;;6.20;99.90;;;;;;5061133;28;20053;-67
2024/01/23 03:12:18;;;;;;;25.98;4.30;;;6.20;99.90;;;;;;5044804;28;20085;-67
2024/01/23 03:14:45;;;;;;;26.45;3.92;;;6.20;99.90;;;;;;5045359;28;20514;-67
2024/01/23 03:17:12;;;;;;;28.27;4.53;;;6.20;99.90;;;;;;5063967;28;20040;-67
2024/01/23 03:19:38;;;;;;;25.77;4.15;;;6.40;99.90;;;;;;5063724;28;20068;-67
2024/01/23 03:22:04;;;;;;;22.95;4.38;;;6.20;99.90;;;;;;5066144;28;20489;-67
2024/01/23 03:24:30;;;;;;;27.48;4.13;;;6.20;99.90;;;;;;5064281;28;20500;-67
2024/01/23 03:26:56;;;;;;;30.10;4.68;;;6.20;99.90;;;;;;5064364;28;20052;-66
2024/01/23 03:29:23;;;;;;;24.10;3.75;;;6.20;99.90;;;;;;5047674;28;20134;-66
2024/01/23 03:31:49;;;;;;;29.40;4.78;;;6.20;99.90;;;;;;5064929;28;20052;-67
2024/01/23 03:34:15;;;;;;;31.05;4.30;;;6.50;99.90;;;;;;5064578;28;20043;-67
2024/01/23 03:36:41;;;;;;;32.60;4.57;;;6.50;99.90;;;;;;5062946;28;20098;-66
2024/01/23 03:39:07;;;;;;;31.23;4.05;;;6.20;99.90;;;;;;5064068;28;20453;-67
2024/01/23 03:41:39;;;;;;;26.73;4.43;;;6.20;99.90;;;;;;5065222;28;20044;-66
2024/01/23 03:44:06;;;;;;;35.90;4.82;;;6.20;99.90;;;;;;5063300;28;20047;-67
2024/01/23 03:46:32;;;;;;;37.28;5.88;;;6.20;99.90;;;;;;5064588;28;20158;-67
2024/01/23 03:48:58;;;;;;;29.38;4.38;;;6.20;99.90;;;;;;5064295;28;20151;-65
2024/01/23 03:51:24;;;;;;;37.78;4.63;;;6.20;99.90;;;;;;5064793;28;20044;-66
2024/01/23 03:53:50;;;;;;;34.08;4.40;;;6.30;99.90;;;;;;5064088;28;20032;-67
2024/01/23 03:56:16;;;;;;;19.88;3.85;;;6.30;99.90;;;;;;5065243;28;20079;-66
2024/01/23 03:58:42;;;;;;;27.05;4.32;;;6.30;99.90;;;;;;5064674;28;20091;-66
2024/01/23 04:01:08;;;;;;;24.67;4.47;;;6.30;99.90;;;;;;5063615;28;20041;-66
2024/01/23 04:03:34;;;;;;;33.90;4.85;;;6.30;99.90;;;;;;5064066;28;20051;-66
2024/01/23 04:06:00;;;;;;;28.92;4.63;;;6.40;99.90;;;;;;5048455;28;20412;-66
2024/01/23 04:08:26;;;;;;;30.00;4.28;;;6.40;99.90;;;;;;5063560;28;20052;-67
2024/01/23 04:10:52;;;;;;;25.20;4.30;;;6.40;99.90;;;;;;5063390;28;20047;-66
2024/01/23 04:13:17;;;;;;;33.63;5.25;;;6.40;99.90;;;;;;5063496;28;20044;-66
2024/01/23 04:15:45;;;;;;;28.65;5.75;;;6.40;99.90;;;;;;5063419;28;20040;-66
2024/01/23 04:18:11;;;;;;;28.75;4.10;;;6.40;99.90;;;;;;5063956;28;20041;-67
2024/01/23 04:20:38;;;;;;;26.40;5.15;;;6.40;99.90;;;;;;5063315;28;20051;-67
2024/01/23 04:23:03;;;;;;;33.58;4.72;;;6.40;99.90;;;;;;5062424;28;20056;-65
2024/01/23 04:25:29;;;;;;;31.40;5.88;;;6.40;99.90;;;;;;5047302;28;20060;-66
2024/01/23 04:27:57;;;;;;;31.80;4.47;;;6.50;99.90;;;;;;5063120;28;20054;-67
2024/01/23 04:30:23;;;;;;;21.70;4.28;;;6.50;99.90;;;;;;5062271;28;20053;-67
2024/01/23 04:32:49;;;;;;;39.97;5.07;;;6.50;99.90;;;;;;5064478;28;20116;-67
2024/01/23 04:35:14;;;;;;;36.55;5.28;;;6.60;99.90;;;;;;5062562;28;20123;-67
2024/01/23 04:37:40;;;;;;;36.47;5.47;;;6.50;99.90;;;;;;5062846;28;20724;-67
2024/01/23 04:40:08;;;;;;;33.80;5.13;;;6.50;99.90;;;;;;5063211;28;20040;-66
2024/01/23 04:42:37;;;;;;;29.38;5.47;;;6.50;99.90;;;;;;5047115;28;20040;-66
2024/01/23 04:45:04;;;;;;;39.95;5.03;;;6.50;99.90;;;;;;5046663;28;20230;-65
2024/01/23 04:47:30;;;;;;;31.40;5.10;;;6.50;99.90;;;;;;5061960;28;20052;-67
2024/01/23 04:49:55;;;;;;;35.60;5.00;;;6.50;99.90;;;;;;5045552;28;20051;-66
2024/01/23 04:52:21;;;;;;;40.80;5.15;;;6.50;99.90;;;;;;5063294;28;20040;-66
2024/01/23 04:54:47;;;;;;;31.98;5.10;;;6.50;99.90;;;;;;5062725;28;20515;-66
2024/01/23 04:57:14;;;;;;;38.78;5.45;;;6.60;99.90;;;;;;5046548;28;20055;-68
2024/01/23 04:59:42;;;;;;;37.90;5.85;;;6.50;99.90;;;;;;5062550;28;20041;-66
2024/01/23 05:02:08;;;;;;;29.92;5.03;;;6.60;99.90;;;;;;5061749;28;20037;-67
2024/01/23 05:04:34;;;;;;;36.30;5.40;;;6.60;99.90;;;;;;5062478;28;20662;-67
2024/01/23 05:07:00;;;;;;;38.38;5.05;;;6.60;99.90;;;;;;5060009;28;20756;-66
2024/01/23 05:09:30;;;;;;;40.85;7.50;;;6.60;99.90;;;;;;5061322;28;20048;-66
2024/01/23 05:11:59;;;;;;;34.53;4.90;;;6.60;99.90;;;;;;5045140;28;20075;-67
2024/01/23 05:14:25;;;;;;;32.20;6.00;;;6.60;99.90;;;;;;5061612;28;20549;-66
2024/01/23 05:16:51;;;;;;;41.65;5.93;;;6.60;99.90;;;;;;5061878;28;20040;-67
2024/01/23 05:19:17;;;;;;;35.38;5.45;;;6.60;99.90;;;;;;5045322;28;20049;-66
2024/01/23 05:21:43;;;;;;;40.40;5.82;;;6.60;99.90;;;;;;5061826;28;20052;-66
2024/01/23 05:24:09;;;;;;;32.90;4.60;;;6.60;99.90;;;;;;5062080;28;20131;-66
2024/01/23 05:26:34;;;;;;;35.33;5.25;;;6.60;99.90;;;;;;5061840;28;20048;-66
2024/01/23 05:29:00;;;;;;;38.65;4.80;;;6.60;99.90;;;;;;5061277;28;20048;-66
2024/01/23 05:31:26;;;;;;;39.90;6.90;;;6.60;99.90;;;;;;5059359;28;20051;-66
2024/01/23 05:33:51;;;;;;;35.30;7.40;;;6.70;99.90;;;;;;5044056;28;20056;-66
2024/01/23 05:36:18;;;;;;;31.58;6.53;;;6.60;99.90;;;;;;5060485;28;20160;-66
2024/01/23 05:38:44;;;;;;;37.72;6.35;;;6.60;99.90;;;;;;5048658;28;20395;-66
2024/01/23 05:41:10;;;;;;;37.83;5.88;;;6.60;99.90;;;;;;5055210;28;20055;-67
2024/01/23 05:43:35;;;;;;;49.65;6.03;;;6.80;99.90;;;;;;5061259;28;20090;-66
2024/01/23 05:46:02;;;;;;;39.92;6.35;;;6.50;99.90;;;;;;5051808;28;20119;-66
2024/01/23 05:48:28;;;;;;;33.67;6.00;;;6.50;99.90;;;;;;5050102;28;20045;-66
2024/01/23 05:50:54;;;;;;;34.38;4.75;;;6.50;99.90;;;;;;5056348;28;20040;-66
2024/01/23 05:53:19;;;;;;;37.80;6.47;;;6.50;99.90;;;;;;5042377;28;20083;-69
2024/01/23 05:55:45;;;;;;;40.53;5.85;;;6.50;99.90;;;;;;5044173;28;20135;-69
2024/01/23 05:58:11;;;;;;;43.95;6.10;;;6.50;99.90;;;;;;5058302;28;20076;-68
2024/01/23 06:00:37;;;;;;;40.25;5.75;;;6.40;99.90;;;;;;5057468;28;20060;-68
2024/01/23 06:03:03;;;;;;;37.38;5.82;;;6.70;99.90;;;;;;5060088;28;20583;-69
2024/01/23 06:05:29;;;;;;;33.58;5.18;;;6.30;99.90;;;;;;5062903;28;20053;-69
2024/01/23 06:07:54;;;;;;;35.00;5.95;;;6.40;99.90;;;;;;5059382;28;20055;-69
2024/01/23 06:10:20;;;;;;;38.38;6.47;;;6.70;99.90;;;;;;5091102;28;20123;-69
2024/01/23 06:12:46;;;;;;;32.47;5.95;;;6.30;99.90;;;;;;5059174;28;20063;-70
2024/01/23 06:15:13;;;;;;;45.70;6.68;;;6.20;99.90;;;;;;5060630;28;20052;-68
2024/01/23 06:17:39;;;;;;;39.20;5.60;;;6.20;99.90;;;;;;5062681;28;20056;-69
2024/01/23 06:20:05;;;;;;;35.90;6.80;;;6.30;99.90;;;;;;5042071;28;20071;-69
2024/01/23 06:22:31;;;;;;;31.98;5.15;;;6.20;99.90;;;;;;5059663;28;20145;-69
2024/01/23 06:25:05;;;;;;;42.80;6.25;;;6.20;99.90;;;;;;5059852;28;20556;-69
2024/01/23 06:27:30;;;;;;;40.40;5.60;;;6.10;99.90;;;;;;5089657;28;20072;-69
2024/01/23 06:29:57;;;;;;;47.35;6.28;;;6.10;99.90;;;;;;5043318;28;22353;-69
2024/01/23 06:32:23;;;;;;;42.90;5.47;;;6.10;99.90;;;;;;5043068;28;20060;-69
2024/01/23 06:34:50;;;;;;;36.53;5.82;;;6.10;99.90;;;;;;5041712;28;20052;-68
2024/01/23 06:37:16;;;;;;;33.25;6.45;;;6.10;99.90;;;;;;5059046;28;20044;-69
2024/01/23 06:39:42;;;;;;;37.78;5.82;;;6.10;99.90;;;;;;5046564;28;21335;-68
2024/01/23 06:42:07;;;;;;;38.08;5.32;;;6.10;99.90;;;;;;5054764;28;20060;-69
2024/01/23 06:44:34;;;;;;;44.33;6.80;;;6.00;99.90;;;;;;5059708;28;20147;-69
2024/01/23 06:47:01;;;;;;;41.50;6.22;;;6.10;99.90;;;;;;5061705;28;20041;-69
2024/01/23 06:49:27;;;;;;;46.97;6.70;;;6.00;99.90;;;;;;5042881;28;20779;-69
2024/01/23 06:51:52;;;;;;;41.17;5.93;;;6.00;99.90;;;;;;5058356;28;20056;-70
2024/01/23 06:54:18;;;;;;;40.35;6.03;;;6.00;99.90;;;;;;5050826;28;20051;-69
2024/01/23 06:56:45;;;;;;;42.95;6.03;;;6.00;99.90;;;;;;5058480;28;20359;-69
2024/01/23 06:59:12;;;;;;;41.58;6.38;;;6.00;99.90;;;;;;5044331;28;20121;-71
2024/01/23 07:01:38;;;;;;;39.35;5.32;;;6.00;99.90;;;;;;5058379;28;20110;-70
2024/01/23 07:04:04;;;;;;;36.95;5.20;;;5.90;99.90;;;;;;5038621;28;20367;-71
2024/01/23 07:06:30;;;;;;;42.35;7.18;;;6.60;99.90;;;;;;5062101;28;20060;-68
2024/01/23 07:08:55;;;;;;;38.60;5.85;;;5.90;99.90;;;;;;5058333;28;20060;-69
2024/01/23 07:11:21;;;;;;;36.03;5.25;;;5.90;99.90;;;;;;5059679;28;20105;-69
2024/01/23 07:13:47;;;;;;;36.67;6.68;;;5.90;99.90;;;;;;5059995;28;20041;-66
2024/01/23 07:16:13;;;;;;;36.97;6.38;;;5.90;99.90;;;;;;5060576;28;20396;-66
2024/01/23 07:18:38;;;;;;;36.08;7.35;;;5.90;99.90;;;;;;5046553;28;20190;-66
2024/01/23 07:21:04;;;;;;;39.53;5.97;;;5.90;99.90;;;;;;5064802;28;20448;-65
2024/01/23 07:23:30;;;;;;;38.90;6.07;;;5.90;99.90;;;;;;5046582;28;20518;-66
2024/01/23 07:25:58;;;;;;;35.38;5.60;;;6.40;99.90;;;;;;5046154;28;20128;-66
2024/01/23 07:28:24;;;;;;;39.25;6.03;;;5.80;99.90;;;;;;5062195;28;20131;-65
2024/01/23 07:30:49;;;;;;;39.58;5.25;;;5.80;99.90;;;;;;5063349;28;20516;-65
2024/01/23 07:33:15;;;;;;;49.55;6.30;;;5.80;99.90;;;;;;5060602;28;20044;-65
2024/01/23 07:35:41;;;;;;;43.33;5.97;;;5.80;99.90;;;;;;5062153;28;20986;-66
2024/01/23 07:38:10;;;;;;;52.30;7.38;;;5.80;99.90;;;;;;5063703;28;20119;-66
2024/01/23 07:40:37;;;;;;;42.50;5.68;;;5.80;99.90;;;;;;5060580;28;20040;-67
2024/01/23 07:43:03;;;;;;;34.03;5.85;;;5.80;99.90;;;;;;5060305;28;20044;-66
2024/01/23 07:45:29;;;;;;;37.60;5.90;;;6.70;99.90;;;;;;5062957;28;20056;-66
2024/01/23 07:47:56;;;;;;;39.78;6.25;;;5.80;99.90;;;;;;5061696;28;20123;-66
2024/01/23 07:50:22;;;;;;;47.13;5.90;;;5.70;99.90;;;;;;5058766;28;20048;-66
2024/01/23 07:52:48;;;;;;;41.85;6.35;;;5.70;99.90;;;;;;5046611;28;20421;-66
2024/01/23 07:55:14;;;;;;;37.15;5.57;;;5.80;99.90;;;;;;5059887;28;20051;-67
2024/01/23 07:57:39;;;;;;;41.63;6.82;;;5.80;99.90;;;;;;5057789;28;20131;-66
2024/01/23 08:00:07;;;;;;;43.75;5.80;;;5.70;99.90;;;;;;5060707;28;20052;-66
2024/01/23 08:02:32;;;;;;;40.83;6.57;;;5.70;99.90;;;;;;5044163;28;20113;-68
2024/01/23 08:04:59;;;;;;;48.20;6.70;;;5.70;99.90;;;;;;5059814;28;20717;-68
2024/01/23 08:07:25;;;;;;;44.40;5.80;;;5.70;99.90;;;;;;5062314;28;20044;-67
2024/01/23 08:09:51;;;;;;;38.45;5.95;;;6.10;99.90;;;;;;5058499;28;20089;-66
2024/01/23 08:12:17;;;;;;;44.63;5.50;;;5.90;99.90;;;;;;5061526;28;20037;-66
2024/01/23 08:14:43;;;;;;;45.17;5.70;;;6.00;99.90;;;;;;5037815;28;20103;-66
2024/01/23 08:17:10;;;;;;;45.13;5.95;;;5.70;99.90;;;;;;5044038;28;20048;-66
2024/01/23 08:19:39;;;;;;;43.92;5.53;;;5.70;99.90;;;;;;5042694;28;20076;-67
2024/01/23 08:22:05;;;;;;;33.95;5.57;;;5.80;99.90;;;;;;5057908;28;20115;-67
2024/01/23 08:24:32;;;;;;;42.33;5.80;;;5.80;99.90;;;;;;5041918;28;20090;-66
2024/01/23 08:26:58;;;;;;;43.53;6.10;;;5.80;99.90;;;;;;5032161;28;20041;-66
2024/01/23 08:29:24;;;;;;;44.22;6.57;;;5.80;99.90;;;;;;5048654;28;20048;-66
2024/01/23 08:31:50;;;;;;;38.72;6.00;;;5.80;99.90;;;;;;5029107;28;20072;-66
2024/01/23 08:34:16;;;;;;;45.70;6.90;;;5.80;99.90;;;;;;5042237;28;20091;-67
2024/01/23 08:36:42;;;;;;;40.72;6.00;;;6.20;99.90;;;;;;5048799;28;20056;-66
2024/01/23 08:39:08;;;;;;;36.10;6.07;;;5.80;99.90;;;;;;5050488;28;20052;-65
2024/01/23 08:41:34;;;;;;;44.92;5.82;;;6.40;99.90;;;;;;5049859;28;20056;-66
2024/01/23 08:44:00;;;;;;;44.45;6.57;;;5.80;99.90;;;;;;5035690;28;20044;-66
2024/01/23 08:46:25;;;;;;;36.58;5.88;;;5.80;99.90;;;;;;5040149;28;20105;-65
2024/01/23 08:48:51;;;;;;;55.35;6.57;;;5.80;99.90;;;;;;5074733;28;20052;-66
2024/01/23 08:51:17;;;;;;;32.45;5.22;;;5.90;99.90;;;;;;5031123;28;21244;-66
2024/01/23 08:53:43;;;;;;;42.47;7.10;;;5.90;99.90;;;;;;5030651;28;20051;-66
2024/01/23 08:56:09;;;;;;;46.35;6.50;;;5.80;99.90;;;;;;5025234;28;20131;-66
2024/01/23 08:58:34;;;;;;;33.13;6.13;;;5.90;99.90;;;;;;5048411;28;20575;-66
2024/01/23 09:01:00;;;;;;;54.28;6.70;;;5.90;99.90;;;;;;5045134;28;20074;-66
2024/01/23 09:03:26;;;;;;;46.63;6.47;;;5.80;99.90;;;;;;5029579;28;20045;-66
2024/01/23 09:05:52;;;;;;;43.80;6.85;;;5.90;99.90;;;;;;5046742;28;20886;-67
2024/01/23 09:08:17;;;;;;;39.10;8.18;;;5.90;99.90;;;;;;5046623;28;20048;-66
2024/01/23 09:10:43;;;;;;;44.30;6.35;;;5.90;99.90;;;;;;5048303;28;20440;-66
2024/01/23 09:13:09;;;;;;;43.30;6.05;;;6.00;99.90;;;;;;5048077;28;20123;-66
2024/01/23 09:15:35;;;;;;;34.92;6.35;;;6.00;99.90;;;;;;5020811;28;20136;-67
2024/01/23 09:18:01;;;;;;;40.42;5.93;;;6.00;99.90;;;;;;5039217;28;20040;-66
2024/01/23 09:20:27;;;;;;;53.20;5.95;;;5.80;99.90;;;;;;5021300;28;20267;-66
2024/01/23 09:22:53;;;;;;;50.38;6.95;;;6.00;99.90;;;;;;5039197;28;20507;-67
2024/01/23 09:25:19;;;;;;;38.50;5.60;;;6.00;99.90;;;;;;5044922;28;20109;-67
2024/01/23 09:27:45;;;;;;;48.05;7.20;;;6.60;99.90;;;;;;5046819;28;20045;-66
2024/01/23 09:30:12;;;;;;;43.92;7.03;;;6.10;99.90;;;;;;5047716;28;20146;-67
2024/01/23 09:32:38;;;;;;;39.33;5.57;;;6.10;99.90;;;;;;5048674;28;20040;-66
2024/01/23 09:35:04;;;;;;;34.97;6.22;;;6.10;99.90;;;;;;5047385;28;20086;-67
2024/01/23 09:37:29;;;;;;;41.47;6.40;;;6.10;99.90;;;;;;5046739;28;20054;-67
2024/01/23 09:39:55;;;;;;;41.20;5.43;;;6.20;99.90;;;;;;5047245;28;20095;-67
2024/01/23 09:42:24;;;;;;;28.13;4.75;;;6.20;99.90;;;;;;5047158;28;20048;-67
2024/01/23 09:44:55;;;;;;;31.55;5.43;;;6.30;99.90;;;;;;5031377;28;20131;-67
2024/01/23 09:47:23;;;;;;;50.78;6.82;;;6.20;99.90;;;;;;5048630;28;20052;-70
2024/01/23 09:49:51;;;;;;;34.92;5.43;;;6.30;99.90;;;;;;5032797;28;20456;-70
2024/01/23 09:52:18;;;;;;;41.55;6.85;;;6.30;99.90;;;;;;5031803;28;20048;-71
2024/01/23 09:54:45;;;;;;;37.88;5.15;;;6.30;99.90;;;;;;5029733;28;20125;-67
2024/01/23 09:57:12;;;;;;;39.58;6.53;;;6.30;99.90;;;;;;5040992;28;20898;-67
2024/01/23 09:59:38;;;;;;;43.10;6.22;;;6.40;99.90;;;;;;5046681;28;20053;-66
2024/01/23 10:02:07;;;;;;;43.75;7.80;;;6.40;99.90;;;;;;5046861;28;21460;-67
2024/01/23 10:04:33;;;;;;;51.15;6.43;;;6.30;99.90;;;;;;5081627;28;20069;-68
2024/01/23 10:07:06;;;;;;;41.83;7.82;;;6.40;99.90;;;;;;5044782;28;20409;-67
2024/01/23 10:09:32;;;;;;;39.35;6.32;;;6.40;99.90;;;;;;5031209;28;20441;-67
2024/01/23 10:11:57;;;;;;;37.35;6.63;;;6.40;99.90;;;;;;5045661;28;20060;-68
2024/01/23 10:14:23;;;;;;;43.40;6.78;;;6.50;99.90;;;;;;5046138;28;20506;-67
2024/01/23 10:16:49;;;;;;;44.25;6.43;;;6.50;99.90;;;;;;5044341;28;20048;-67
2024/01/23 10:19:16;;;;;;;45.45;6.38;;;6.50;99.90;;;;;;5046151;28;20055;-68
2024/01/23 10:21:42;;;;;;;36.88;6.53;;;6.50;99.90;;;;;;5050142;28;20052;-68
2024/01/23 10:24:08;;;;;;;39.72;5.65;;;6.60;99.90;;;;;;5052583;28;20048;-68
2024/01/23 10:26:34;;;;;;;45.83;6.05;;;6.60;99.90;;;;;;5048901;28;20044;-68
2024/01/23 10:29:04;;;;;;;41.85;6.53;;;6.60;99.90;;;;;;5036216;28;20043;-67
2024/01/23 10:31:30;;;;;;;40.17;5.75;;;6.70;99.90;;;;;;5042507;28;20708;-67
2024/01/23 10:33:57;;;;;;;44.85;6.50;;;6.70;99.90;;;;;;5062426;28;20044;-67
2024/01/23 10:36:23;;;;;;;34.67;5.68;;;6.80;99.90;;;;;;5059827;28;20122;-68
2024/01/23 10:38:50;;;;;;;43.13;6.55;;;6.80;99.90;;;;;;5060219;28;20053;-67
2024/01/23 10:41:23;;;;;;;40.40;6.38;;;6.80;99.90;;;;;;5061280;28;20051;-68
2024/01/23 10:43:51;;;;;;;36.47;5.78;;;6.80;99.90;;;;;;5042213;28;20052;-67
2024/01/23 10:46:17;;;;;;;43.90;7.05;;;6.90;99.90;;;;;;5066980;28;20083;-69
2024/01/23 10:48:42;;;;;;;45.22;5.72;;;6.90;99.90;;;;;;5058345;28;20543;-70
2024/01/23 10:51:18;;;;;;;51.60;7.03;;;6.90;99.90;;;;;;5042401;28;20702;-69
2024/01/23 10:54:00;;;;;;;35.75;5.90;;;6.90;99.90;;;;;;5093433;28;20083;-70
2024/01/23 10:56:39;;;;;;;42.50;6.72;;;6.90;99.90;;;;;;5060270;28;20170;-69
2024/01/23 10:59:15;;;;;;;37.10;5.55;;;6.90;99.90;;;;;;5044955;28;20401;-70
2024/01/23 11:01:45;;;;;;;44.63;6.30;;;7.00;99.90;;;;;;5044076;28;20151;-70
2024/01/23 11:04:11;;;;;;;35.53;6.03;;;7.00;99.90;;;;;;5061118;28;20307;-69
2024/01/23 11:06:45;;;;;;;36.70;4.90;;;7.20;99.90;;;;;;5057720;28;20052;-70
2024/01/23 11:09:30;;;;;;;37.13;5.10;;;7.10;99.90;;;;;;5086716;27;20093;-69
2024/01/23 11:12:27;;;;;;;33.00;4.90;;;7.10;99.90;;;;;;5054506;28;20088;-70
2024/01/23 11:15:00;;;;;;;35.00;5.45;;;7.10;99.90;;;;;;5057168;28;20060;-70
2024/01/23 11:17:31;;;;;;;30.73;5.03;;;7.10;99.90;;;;;;5044377;28;20170;-69
2024/01/23 11:20:14;;;;;;;39.55;6.90;;;7.10;99.90;;;;;;5041205;28;20543;-67
2024/01/23 11:22:40;;;;;;;37.17;4.93;;;7.20;99.90;;;;;;5058515;28;20561;-66
2024/01/23 11:25:08;;;;;;;34.90;6.10;;;7.60;99.90;;;;;;5059307;28;20044;-66
2024/01/23 11:27:35;;;;;;;31.92;5.00;;;7.20;99.90;;;;;;5061358;28;20041;-66
2024/01/23 11:30:04;;;;;;;36.78;4.60;;;7.70;99.90;;;;;;5064634;28;20037;-66
2024/01/23 11:32:30;;;;;;;32.33;4.95;;;7.20;99.90;;;;;;5045070;28;20044;-66
2024/01/23 11:35:03;;;;;;;34.67;5.47;;;7.30;99.90;;;;;;5043411;28;20412;-66
2024/01/23 11:37:31;;;;;;;34.40;4.47;;;7.30;99.90;;;;;;5095947;27;20535;-65
2024/01/23 11:40:03;;;;;;;37.97;5.18;;;7.30;99.90;;;;;;5089119;27;20056;-67
2024/01/23 11:42:46;;;;;;;;;;;7.30;99.90;;;;;;5041361;28;20083;-66
2024/01/23 11:45:27;;;;;;;33.42;4.88;;;7.30;99.90;;;;;;5039720;28;19929;-66
2024/01/23 11:48:01;;;;;;;34.08;4.35;;;7.30;99.90;;;;;;5038868;28;20048;-67
2024/01/23 11:50:29;;;;;;;33.92;4.78;;;7.30;99.90;;;;;;5054498;28;20481;-66
2024/01/23 11:52:57;;;;;;;35.28;4.72;;;7.30;99.90;;;;;;5053741;28;20044;-66
2024/01/23 11:55:24;;;;;;;31.92;4.68;;;7.40;99.90;;;;;;5046778;28;20048;-67
2024/01/23 11:57:52;;;;;;;32.00;5.03;;;7.40;99.90;;;;;;5032220;28;20186;-66
2024/01/23 12:00:18;;;;;;;35.00;5.80;;;7.40;99.90;;;;;;5055608;28;20367;-66
2024/01/23 12:02:47;;;;;;;33.75;4.72;;;7.30;99.90;;;;;;5060118;28;20398;-67
2024/01/23 12:05:13;;;;;;;29.13;4.78;;;7.30;99.90;;;;;;5074086;28;20047;-66
2024/01/23 12:07:42;;;;;;;39.65;5.55;;;7.30;99.90;;;;;;5057784;28;20059;-66
2024/01/23 12:10:10;;;;;;;29.05;4.38;;;7.30;99.90;;;;;;5059203;28;20044;-66
2024/01/23 12:12:37;;;;;;;33.65;5.10;;;7.30;99.90;;;;;;5055676;28;20600;-67
2024/01/23 12:15:06;;;;;;;37.50;5.47;;;7.30;99.90;;;;;;5032991;28;20040;-64
2024/01/23 12:17:33;;;;;;;27.58;4.00;;;7.40;99.90;;;;;;5084612;27;20048;-67
2024/01/23 12:20:09;;;;;;;35.67;5.10;;;7.40;99.90;;;;;;5054623;28;20036;-66
2024/01/23 12:22:38;;;;;;;24.92;4.20;;;7.40;99.90;;;;;;5041604;28;20040;-66
2024/01/23 12:25:05;;;;;;;29.60;4.82;;;7.40;99.90;;;;;;5042143;28;20052;-67
2024/01/23 12:27:31;;;;;;;36.78;4.50;;;7.40;99.90;;;;;;5056801;28;20086;-67
2024/01/23 12:29:58;;;;;;;42.80;5.47;;;7.90;99.90;;;;;;5043859;28;20048;-66
2024/01/23 12:32:30;;;;;;;28.33;4.95;;;7.50;99.90;;;;;;5060608;28;20056;-66
2024/01/23 12:34:57;;;;;;;33.60;5.10;;;7.50;99.90;;;;;;5060633;28;20052;-66
2024/01/23 12:37:31;;;;;;;35.97;6.43;;;7.50;99.90;;;;;;5062895;28;20060;-67
2024/01/23 12:40:08;;;;;;;35.35;4.68;;;7.50;99.90;;;;;;5043768;28;20098;-66
2024/01/23 12:42:44;;;;;;;36.63;5.18;;;7.50;99.90;;;;;;5062326;28;20051;-66
2024/01/23 12:45:19;;;;;;;31.40;4.93;;;7.60;99.90;;;;;;5041579;28;20033;-67
2024/01/23 12:47:45;;;;;;;37.40;5.13;;;7.60;99.90;;;;;;5057945;28;20052;-66